Amboy, Washington
Current Conditions -  °F | °C
As of 3:53 PM on Saturday 20 Dec 2014 (Local Time) from KSPB Reporting Station
Light Rain Light Rain  
Wind Chill: 11°   Ceiling: 1300
Heat Index: 11°   Visibility: 6mi
Dew Point: 10°   Wind: 6mph
Humidity: 93%   Direction: 170°S
Pressure: 29.61"   Gusts: NA
Location:  45.91°N, 122.45°W
Report Text: KSPB 202353Z AUTO 17005KT 6SM -RA BR OVC013 11/10 A2961 RMK AO2 SLP028 P0006 60048 T01110100 10117 20100 55002
Loading
Personal Weather Stations






























Interactive Weather Map New forecast layout! Learn more

10-Day Weather Forecast

Advertisements
Track Severe Weather on mobile